sensor_id;sensor_type;location;lat;lon;timestamp;temperature;humidity
9699;DHT22;10089;47.876;8.346;2022-11-20T00:01:33;2.10;99.90
9699;DHT22;10089;47.876;8.346;2022-11-20T00:03:59;2.20;99.90
9699;DHT22;10089;47.876;8.346;2022-11-20T00:06:25;2.20;99.90
9699;DHT22;10089;47.876;8.346;2022-11-20T00:08:52;2.40;99.90
9699;DHT22;10089;47.876;8.346;2022-11-20T00:11:20;2.10;99.90
9699;DHT22;10089;47.876;8.346;2022-11-20T00:13:47;2.10;99.90
9699;DHT22;10089;47.876;8.346;2022-11-20T00:16:13;2.10;99.90
9699;DHT22;10089;47.876;8.346;2022-11-20T00:18:39;2.40;99.90
9699;DHT22;10089;47.876;8.346;2022-11-20T00:21:15;2.10;99.90
9699;DHT22;10089;47.876;8.346;2022-11-20T00:23:41;2.10;99.90
9699;DHT22;10089;47.876;8.346;2022-11-20T00:26:08;2.10;99.90
9699;DHT22;10089;47.876;8.346;2022-11-20T00:28:34;2.10;99.90
9699;DHT22;10089;47.876;8.346;2022-11-20T00:31:01;2.10;99.90
9699;DHT22;10089;47.876;8.346;2022-11-20T00:33:27;2.30;99.90
9699;DHT22;10089;47.876;8.346;2022-11-20T00:35:53;2.20;99.90
9699;DHT22;10089;47.876;8.346;2022-11-20T00:38:18;2.20;99.90
9699;DHT22;10089;47.876;8.346;2022-11-20T00:40:44;2.20;99.90
9699;DHT22;10089;47.876;8.346;2022-11-20T00:43:09;2.20;99.90
9699;DHT22;10089;47.876;8.346;2022-11-20T00:45:35;2.20;99.90
9699;DHT22;10089;47.876;8.346;2022-11-20T00:48:00;2.70;99.90
9699;DHT22;10089;47.876;8.346;2022-11-20T00:50:26;2.20;99.90
9699;DHT22;10089;47.876;8.346;2022-11-20T00:52:51;2.60;99.90
9699;DHT22;10089;47.876;8.346;2022-11-20T00:55:17;2.20;99.90
9699;DHT22;10089;47.876;8.346;2022-11-20T00:57:42;2.50;99.90
9699;DHT22;10089;47.876;8.346;2022-11-20T01:00:08;2.30;99.90
9699;DHT22;10089;47.876;8.346;2022-11-20T01:02:33;2.30;99.90
9699;DHT22;10089;47.876;8.346;2022-11-20T01:04:59;2.30;99.90
9699;DHT22;10089;47.876;8.346;2022-11-20T01:07:25;2.30;99.90
9699;DHT22;10089;47.876;8.346;2022-11-20T01:09:50;2.40;99.90
9699;DHT22;10089;47.876;8.346;2022-11-20T01:12:16;2.70;99.90
9699;DHT22;10089;47.876;8.346;2022-11-20T01:14:41;2.30;99.90
9699;DHT22;10089;47.876;8.346;2022-11-20T01:17:07;2.30;99.90
9699;DHT22;10089;47.876;8.346;2022-11-20T01:19:32;2.20;99.90
9699;DHT22;10089;47.876;8.346;2022-11-20T01:21:58;2.20;99.90
9699;DHT22;10089;47.876;8.346;2022-11-20T01:24:23;2.40;99.90
9699;DHT22;10089;47.876;8.346;2022-11-20T01:26:50;2.30;99.90
9699;DHT22;10089;47.876;8.346;2022-11-20T01:29:17;2.30;99.90
9699;DHT22;10089;47.876;8.346;2022-11-20T01:31:42;2.20;99.90
9699;DHT22;10089;47.876;8.346;2022-11-20T01:34:15;2.30;99.90
9699;DHT22;10089;47.876;8.346;2022-11-20T01:36:42;2.30;99.90
9699;DHT22;10089;47.876;8.346;2022-11-20T01:39:12;2.30;99.90
9699;DHT22;10089;47.876;8.346;2022-11-20T01:41:37;2.30;99.90
9699;DHT22;10089;47.876;8.346;2022-11-20T01:44:22;2.30;99.90
9699;DHT22;10089;47.876;8.346;2022-11-20T01:47:07;2.40;99.90
9699;DHT22;10089;47.876;8.346;2022-11-20T01:49:39;2.40;99.90
9699;DHT22;10089;47.876;8.346;2022-11-20T01:54:54;2.40;99.90
9699;DHT22;10089;47.876;8.346;2022-11-20T01:57:21;2.40;99.90
9699;DHT22;10089;47.876;8.346;2022-11-20T01:59:49;2.90;99.90
9699;DHT22;10089;47.876;8.346;2022-11-20T02:02:17;2.30;99.90
9699;DHT22;10089;47.876;8.346;2022-11-20T02:04:42;2.40;99.90
9699;DHT22;10089;47.876;8.346;2022-11-20T02:07:08;2.40;99.90
9699;DHT22;10089;47.876;8.346;2022-11-20T02:09:34;3.10;99.90
9699;DHT22;10089;47.876;8.346;2022-11-20T02:12:00;2.30;99.90
9699;DHT22;10089;47.876;8.346;2022-11-20T02:14:25;2.50;99.90
9699;DHT22;10089;47.876;8.346;2022-11-20T02:16:51;2.40;99.90
9699;DHT22;10089;47.876;8.346;2022-11-20T02:21:51;2.60;99.90
9699;DHT22;10089;47.876;8.346;2022-11-20T02:24:19;1.70;99.90
9699;DHT22;10089;47.876;8.346;2022-11-20T02:29:12;2.30;99.90
9699;DHT22;10089;47.876;8.346;2022-11-20T02:31:40;2.20;99.90
9699;DHT22;10089;47.876;8.346;2022-11-20T02:34:06;2.20;99.90
9699;DHT22;10089;47.876;8.346;2022-11-20T02:36:32;2.60;99.90
9699;DHT22;10089;47.876;8.346;2022-11-20T02:38:58;2.20;99.90
9699;DHT22;10089;47.876;8.346;2022-11-20T02:41:34;2.00;99.90
9699;DHT22;10089;47.876;8.346;2022-11-20T02:44:00;1.90;99.90
9699;DHT22;10089;47.876;8.346;2022-11-20T02:46:26;2.60;99.90
9699;DHT22;10089;47.876;8.346;2022-11-20T02:48:51;1.80;99.90
9699;DHT22;10089;47.876;8.346;2022-11-20T02:51:17;1.70;99.90
9699;DHT22;10089;47.876;8.346;2022-11-20T02:53:42;2.20;99.90
9699;DHT22;10089;47.876;8.346;2022-11-20T02:56:08;2.20;99.90
9699;DHT22;10089;47.876;8.346;2022-11-20T02:58:33;1.80;99.90
9699;DHT22;10089;47.876;8.346;2022-11-20T03:00:59;1.70;99.90
9699;DHT22;10089;47.876;8.346;2022-11-20T03:03:25;1.90;99.90
9699;DHT22;10089;47.876;8.346;2022-11-20T03:05:50;1.60;99.90
9699;DHT22;10089;47.876;8.346;2022-11-20T03:08:16;1.50;99.90
9699;DHT22;10089;47.876;8.346;2022-11-20T03:10:41;1.50;99.90
9699;DHT22;10089;47.876;8.346;2022-11-20T03:13:07;1.60;99.90
9699;DHT22;10089;47.876;8.346;2022-11-20T03:15:32;1.80;99.90
9699;DHT22;10089;47.876;8.346;2022-11-20T03:17:58;1.40;99.90
9699;DHT22;10089;47.876;8.346;2022-11-20T03:20:23;1.30;99.90
9699;DHT22;10089;47.876;8.346;2022-11-20T03:22:49;1.30;99.90
9699;DHT22;10089;47.876;8.346;2022-11-20T03:25:15;2.10;99.90
9699;DHT22;10089;47.876;8.346;2022-11-20T03:27:40;1.30;99.90
9699;DHT22;10089;47.876;8.346;2022-11-20T03:30:06;1.20;99.90
9699;DHT22;10089;47.876;8.346;2022-11-20T03:32:32;1.10;99.90
9699;DHT22;10089;47.876;8.346;2022-11-20T03:34:57;1.20;99.90
9699;DHT22;10089;47.876;8.346;2022-11-20T03:37:23;1.10;99.90
9699;DHT22;10089;47.876;8.346;2022-11-20T03:39:48;0.80;99.90
9699;DHT22;10089;47.876;8.346;2022-11-20T03:42:14;1.10;99.90
9699;DHT22;10089;47.876;8.346;2022-11-20T03:44:58;0.90;99.90
9699;DHT22;10089;47.876;8.346;2022-11-20T03:47:24;0.70;99.90
9699;DHT22;10089;47.876;8.346;2022-11-20T03:49:49;1.10;99.90
9699;DHT22;10089;47.876;8.346;2022-11-20T03:52:15;1.10;99.90
9699;DHT22;10089;47.876;8.346;2022-11-20T03:54:40;1.50;99.90
9699;DHT22;10089;47.876;8.346;2022-11-20T03:57:06;0.80;99.90
9699;DHT22;10089;47.876;8.346;2022-11-20T03:59:31;0.80;99.90
9699;DHT22;10089;47.876;8.346;2022-11-20T04:01:57;0.80;99.90
9699;DHT22;10089;47.876;8.346;2022-11-20T04:04:22;0.80;99.90
9699;DHT22;10089;47.876;8.346;2022-11-20T04:06:48;0.70;99.90
9699;DHT22;10089;47.876;8.346;2022-11-20T04:09:13;0.80;99.90
9699;DHT22;10089;47.876;8.346;2022-11-20T04:11:39;0.70;99.90
9699;DHT22;10089;47.876;8.346;2022-11-20T04:14:06;1.40;99.90
9699;DHT22;10089;47.876;8.346;2022-11-20T04:16:36;0.70;99.90
9699;DHT22;10089;47.876;8.346;2022-11-20T04:19:03;0.80;99.90
9699;DHT22;10089;47.876;8.346;2022-11-20T04:21:29;0.60;99.90
9699;DHT22;10089;47.876;8.346;2022-11-20T04:23:55;1.10;99.90
9699;DHT22;10089;47.876;8.346;2022-11-20T04:26:21;1.30;99.90
9699;DHT22;10089;47.876;8.346;2022-11-20T04:28:47;0.50;99.90
9699;DHT22;10089;47.876;8.346;2022-11-20T04:31:13;0.80;99.90
9699;DHT22;10089;47.876;8.346;2022-11-20T04:33:39;0.60;99.90
9699;DHT22;10089;47.876;8.346;2022-11-20T04:36:12;0.80;99.90
9699;DHT22;10089;47.876;8.346;2022-11-20T04:38:38;0.70;99.90
9699;DHT22;10089;47.876;8.346;2022-11-20T04:41:05;0.70;99.90
9699;DHT22;10089;47.876;8.346;2022-11-20T04:43:31;0.60;99.90
9699;DHT22;10089;47.876;8.346;2022-11-20T04:45:57;0.80;99.90
9699;DHT22;10089;47.876;8.346;2022-11-20T04:48:23;0.70;99.90
9699;DHT22;10089;47.876;8.346;2022-11-20T04:50:48;0.60;99.90
9699;DHT22;10089;47.876;8.346;2022-11-20T04:53:14;0.60;99.90
9699;DHT22;10089;47.876;8.346;2022-11-20T04:55:40;0.60;99.90
9699;DHT22;10089;47.876;8.346;2022-11-20T04:58:05;0.90;99.90
9699;DHT22;10089;47.876;8.346;2022-11-20T05:00:31;0.50;99.90
9699;DHT22;10089;47.876;8.346;2022-11-20T05:02:56;0.50;99.90
9699;DHT22;10089;47.876;8.346;2022-11-20T05:05:22;0.60;99.90
9699;DHT22;10089;47.876;8.346;2022-11-20T05:07:48;1.10;99.90
9699;DHT22;10089;47.876;8.346;2022-11-20T05:10:13;0.50;99.90
9699;DHT22;10089;47.876;8.346;2022-11-20T05:12:39;0.30;99.90
9699;DHT22;10089;47.876;8.346;2022-11-20T05:15:04;0.20;99.90
9699;DHT22;10089;47.876;8.346;2022-11-20T05:17:30;0.20;99.90
9699;DHT22;10089;47.876;8.346;2022-11-20T05:19:56;0.60;99.90
9699;DHT22;10089;47.876;8.346;2022-11-20T05:22:21;0.80;99.90
9699;DHT22;10089;47.876;8.346;2022-11-20T05:24:47;0.30;99.90
9699;DHT22;10089;47.876;8.346;2022-11-20T05:27:12;0.30;99.90
9699;DHT22;10089;47.876;8.346;2022-11-20T05:29:38;0.30;99.90
9699;DHT22;10089;47.876;8.346;2022-11-20T05:32:03;0.60;99.90
9699;DHT22;10089;47.876;8.346;2022-11-20T05:34:31;0.30;99.90
9699;DHT22;10089;47.876;8.346;2022-11-20T05:36:56;0.30;99.90
9699;DHT22;10089;47.876;8.346;2022-11-20T05:39:22;1.10;99.90
9699;DHT22;10089;47.876;8.346;2022-11-20T05:41:48;1.00;99.90
9699;DHT22;10089;47.876;8.346;2022-11-20T05:44:33;0.30;99.90
9699;DHT22;10089;47.876;8.346;2022-11-20T05:46:59;0.50;99.90
9699;DHT22;10089;47.876;8.346;2022-11-20T05:49:24;1.40;99.90
9699;DHT22;10089;47.876;8.346;2022-11-20T05:51:50;0.10;99.90
9699;DHT22;10089;47.876;8.346;2022-11-20T05:54:15;0.40;99.90
9699;DHT22;10089;47.876;8.346;2022-11-20T05:56:41;0.10;99.90
9699;DHT22;10089;47.876;8.346;2022-11-20T05:59:07;0.00;99.90
9699;DHT22;10089;47.876;8.346;2022-11-20T06:01:32;-0.10;99.90
9699;DHT22;10089;47.876;8.346;2022-11-20T06:03:58;1.50;99.90
9699;DHT22;10089;47.876;8.346;2022-11-20T06:06:23;0.70;99.90
9699;DHT22;10089;47.876;8.346;2022-11-20T06:08:51;0.40;99.90
9699;DHT22;10089;47.876;8.346;2022-11-20T06:11:16;0.20;99.90
9699;DHT22;10089;47.876;8.346;2022-11-20T06:13:42;0.20;99.90
9699;DHT22;10089;47.876;8.346;2022-11-20T06:16:08;0.80;99.90
9699;DHT22;10089;47.876;8.346;2022-11-20T06:18:34;0.10;99.90
9699;DHT22;10089;47.876;8.346;2022-11-20T06:21:00;1.10;99.90
9699;DHT22;10089;47.876;8.346;2022-11-20T06:23:27;0.30;99.90
9699;DHT22;10089;47.876;8.346;2022-11-20T06:25:53;0.70;99.90
9699;DHT22;10089;47.876;8.346;2022-11-20T06:28:18;0.50;99.90
9699;DHT22;10089;47.876;8.346;2022-11-20T06:30:44;1.20;99.90
9699;DHT22;10089;47.876;8.346;2022-11-20T06:33:10;1.10;99.90
9699;DHT22;10089;47.876;8.346;2022-11-20T06:35:35;0.80;99.90
9699;DHT22;10089;47.876;8.346;2022-11-20T06:38:01;0.90;99.90
9699;DHT22;10089;47.876;8.346;2022-11-20T06:40:26;1.40;99.90
9699;DHT22;10089;47.876;8.346;2022-11-20T06:42:53;1.10;99.90
9699;DHT22;10089;47.876;8.346;2022-11-20T06:45:18;1.10;99.90
9699;DHT22;10089;47.876;8.346;2022-11-20T06:47:44;1.10;99.90
9699;DHT22;10089;47.876;8.346;2022-11-20T06:50:09;1.60;99.90
9699;DHT22;10089;47.876;8.346;2022-11-20T06:52:35;1.60;99.90
9699;DHT22;10089;47.876;8.346;2022-11-20T06:55:00;1.00;99.90
9699;DHT22;10089;47.876;8.346;2022-11-20T06:57:26;1.00;99.90
9699;DHT22;10089;47.876;8.346;2022-11-20T06:59:52;1.40;99.90
9699;DHT22;10089;47.876;8.346;2022-11-20T07:02:17;1.20;99.90
9699;DHT22;10089;47.876;8.346;2022-11-20T07:04:43;1.90;99.90
9699;DHT22;10089;47.876;8.346;2022-11-20T07:07:08;1.20;99.90
9699;DHT22;10089;47.876;8.346;2022-11-20T07:09:34;1.30;99.90
9699;DHT22;10089;47.876;8.346;2022-11-20T07:11:59;1.50;99.90
9699;DHT22;10089;47.876;8.346;2022-11-20T07:14:25;1.30;99.90
9699;DHT22;10089;47.876;8.346;2022-11-20T07:16:51;1.30;99.90
9699;DHT22;10089;47.876;8.346;2022-11-20T07:19:16;1.40;99.90
9699;DHT22;10089;47.876;8.346;2022-11-20T07:21:42;2.30;99.90
9699;DHT22;10089;47.876;8.346;2022-11-20T07:24:07;1.50;99.90
9699;DHT22;10089;47.876;8.346;2022-11-20T07:26:33;1.90;99.90
9699;DHT22;10089;47.876;8.346;2022-11-20T07:28:58;1.70;99.90
9699;DHT22;10089;47.876;8.346;2022-11-20T07:31:24;1.90;99.90
9699;DHT22;10089;47.876;8.346;2022-11-20T07:33:49;2.00;99.90
9699;DHT22;10089;47.876;8.346;2022-11-20T07:36:15;2.10;99.90
9699;DHT22;10089;47.876;8.346;2022-11-20T07:38:41;2.30;99.90
9699;DHT22;10089;47.876;8.346;2022-11-20T07:41:06;2.10;99.90
9699;DHT22;10089;47.876;8.346;2022-11-20T07:43:32;2.40;99.90
9699;DHT22;10089;47.876;8.346;2022-11-20T07:45:58;2.30;99.90
9699;DHT22;10089;47.876;8.346;2022-11-20T07:48:24;2.70;99.90
9699;DHT22;10089;47.876;8.346;2022-11-20T07:50:52;2.70;99.90
9699;DHT22;10089;47.876;8.346;2022-11-20T07:53:18;2.80;99.90
9699;DHT22;10089;47.876;8.346;2022-11-20T07:55:46;2.90;99.90
9699;DHT22;10089;47.876;8.346;2022-11-20T07:58:11;2.90;99.90
9699;DHT22;10089;47.876;8.346;2022-11-20T08:00:37;3.30;99.90
9699;DHT22;10089;47.876;8.346;2022-11-20T08:03:06;3.30;99.90
9699;DHT22;10089;47.876;8.346;2022-11-20T08:05:31;3.40;99.90
9699;DHT22;10089;47.876;8.346;2022-11-20T08:07:57;3.30;99.90
9699;DHT22;10089;47.876;8.346;2022-11-20T08:10:22;3.30;99.90
9699;DHT22;10089;47.876;8.346;2022-11-20T08:12:49;3.20;99.90
9699;DHT22;10089;47.876;8.346;2022-11-20T08:15:33;3.00;99.90
9699;DHT22;10089;47.876;8.346;2022-11-20T08:18:17;3.10;99.90
9699;DHT22;10089;47.876;8.346;2022-11-20T08:20:43;3.10;99.90
9699;DHT22;10089;47.876;8.346;2022-11-20T08:23:08;3.10;99.90
9699;DHT22;10089;47.876;8.346;2022-11-20T08:25:34;3.00;99.90
9699;DHT22;10089;47.876;8.346;2022-11-20T08:28:01;3.00;99.90
9699;DHT22;10089;47.876;8.346;2022-11-20T08:30:27;3.00;99.90
9699;DHT22;10089;47.876;8.346;2022-11-20T08:32:53;3.00;99.90
9699;DHT22;10089;47.876;8.346;2022-11-20T08:35:19;3.00;99.90
9699;DHT22;10089;47.876;8.346;2022-11-20T08:37:46;3.10;99.90
9699;DHT22;10089;47.876;8.346;2022-11-20T08:40:11;3.00;99.90
9699;DHT22;10089;47.876;8.346;2022-11-20T08:42:37;3.10;99.90
9699;DHT22;10089;47.876;8.346;2022-11-20T08:45:02;3.10;99.90
9699;DHT22;10089;47.876;8.346;2022-11-20T08:47:28;3.10;99.90
9699;DHT22;10089;47.876;8.346;2022-11-20T08:49:54;3.40;99.90
9699;DHT22;10089;47.876;8.346;2022-11-20T08:52:19;3.30;99.90
9699;DHT22;10089;47.876;8.346;2022-11-20T08:54:45;3.30;99.90
9699;DHT22;10089;47.876;8.346;2022-11-20T08:57:10;3.20;99.90
9699;DHT22;10089;47.876;8.346;2022-11-20T08:59:36;3.30;99.90
9699;DHT22;10089;47.876;8.346;2022-11-20T09:02:01;3.30;99.90
9699;DHT22;10089;47.876;8.346;2022-11-20T09:04:27;3.30;99.90
9699;DHT22;10089;47.876;8.346;2022-11-20T09:06:52;3.30;99.90
9699;DHT22;10089;47.876;8.346;2022-11-20T09:09:18;3.30;99.90
9699;DHT22;10089;47.876;8.346;2022-11-20T09:11:44;3.40;99.90
9699;DHT22;10089;47.876;8.346;2022-11-20T09:14:09;3.30;99.90
9699;DHT22;10089;47.876;8.346;2022-11-20T09:16:35;3.50;99.90
9699;DHT22;10089;47.876;8.346;2022-11-20T09:19:01;3.30;99.90
9699;DHT22;10089;47.876;8.346;2022-11-20T09:21:26;3.30;99.90
9699;DHT22;10089;47.876;8.346;2022-11-20T09:23:52;3.60;99.90
9699;DHT22;10089;47.876;8.346;2022-11-20T09:26:17;3.50;99.90
9699;DHT22;10089;47.876;8.346;2022-11-20T09:28:43;3.50;99.90
9699;DHT22;10089;47.876;8.346;2022-11-20T09:31:11;3.30;99.90
9699;DHT22;10089;47.876;8.346;2022-11-20T09:33:40;3.30;99.90
9699;DHT22;10089;47.876;8.346;2022-11-20T09:36:06;3.50;99.90
9699;DHT22;10089;47.876;8.346;2022-11-20T09:38:32;3.30;99.90
9699;DHT22;10089;47.876;8.346;2022-11-20T09:40:58;3.30;99.90
9699;DHT22;10089;47.876;8.346;2022-11-20T09:46:17;3.40;99.90
9699;DHT22;10089;47.876;8.346;2022-11-20T09:51:15;3.50;99.90
9699;DHT22;10089;47.876;8.346;2022-11-20T09:53:52;3.50;99.90
9699;DHT22;10089;47.876;8.346;2022-11-20T09:56:21;3.60;99.90
9699;DHT22;10089;47.876;8.346;2022-11-20T09:58:57;3.60;99.90
9699;DHT22;10089;47.876;8.346;2022-11-20T10:01:26;3.70;99.90
9699;DHT22;10089;47.876;8.346;2022-11-20T10:04:13;3.70;99.90
9699;DHT22;10089;47.876;8.346;2022-11-20T10:06:47;3.60;99.90
9699;DHT22;10089;47.876;8.346;2022-11-20T10:09:16;3.60;99.90
9699;DHT22;10089;47.876;8.346;2022-11-20T10:12:03;3.60;99.90
9699;DHT22;10089;47.876;8.346;2022-11-20T10:19:50;3.80;99.90
9699;DHT22;10089;47.876;8.346;2022-11-20T10:24:56;4.00;99.90
9699;DHT22;10089;47.876;8.346;2022-11-20T10:30:11;4.00;99.90
9699;DHT22;10089;47.876;8.346;2022-11-20T10:32:41;3.90;99.90
9699;DHT22;10089;47.876;8.346;2022-11-20T10:35:20;3.90;99.90
9699;DHT22;10089;47.876;8.346;2022-11-20T10:37:49;3.80;99.90
9699;DHT22;10089;47.876;8.346;2022-11-20T10:42:49;3.80;99.90
9699;DHT22;10089;47.876;8.346;2022-11-20T10:47:45;3.70;99.90
9699;DHT22;10089;47.876;8.346;2022-11-20T10:50:11;3.70;99.90
9699;DHT22;10089;47.876;8.346;2022-11-20T10:55:23;3.90;99.90
9699;DHT22;10089;47.876;8.346;2022-11-20T10:57:52;3.80;99.90
9699;DHT22;10089;47.876;8.346;2022-11-20T11:00:19;3.90;99.90
9699;DHT22;10089;47.876;8.346;2022-11-20T11:02:54;4.00;99.90
9699;DHT22;10089;47.876;8.346;2022-11-20T11:05:36;4.00;99.90
9699;DHT22;10089;47.876;8.346;2022-11-20T11:08:02;4.00;99.90
9699;DHT22;10089;47.876;8.346;2022-11-20T11:10:32;4.00;99.90
9699;DHT22;10089;47.876;8.346;2022-11-20T11:13:01;4.00;99.90
9699;DHT22;10089;47.876;8.346;2022-11-20T11:15:36;3.90;99.90
9699;DHT22;10089;47.876;8.346;2022-11-20T11:18:02;3.90;99.90
9699;DHT22;10089;47.876;8.346;2022-11-20T11:20:28;4.10;99.90
9699;DHT22;10089;47.876;8.346;2022-11-20T11:22:54;4.10;99.90
9699;DHT22;10089;47.876;8.346;2022-11-20T11:27:52;4.50;99.90
9699;DHT22;10089;47.876;8.346;2022-11-20T11:30:19;4.50;99.90
9699;DHT22;10089;47.876;8.346;2022-11-20T11:32:45;4.40;99.90
9699;DHT22;10089;47.876;8.346;2022-11-20T11:35:27;4.50;99.90
9699;DHT22;10089;47.876;8.346;2022-11-20T11:37:53;4.40;99.90
9699;DHT22;10089;47.876;8.346;2022-11-20T11:40:20;4.40;99.90
9699;DHT22;10089;47.876;8.346;2022-11-20T11:42:49;4.40;99.90
9699;DHT22;10089;47.876;8.346;2022-11-20T11:45:16;4.30;99.90
9699;DHT22;10089;47.876;8.346;2022-11-20T11:47:46;4.40;99.90
9699;DHT22;10089;47.876;8.346;2022-11-20T11:50:20;4.60;99.90
9699;DHT22;10089;47.876;8.346;2022-11-20T11:55:44;4.90;99.90
9699;DHT22;10089;47.876;8.346;2022-11-20T11:58:27;5.10;99.90
9699;DHT22;10089;47.876;8.346;2022-11-20T12:03:53;4.90;99.90
9699;DHT22;10089;47.876;8.346;2022-11-20T12:06:20;4.70;99.90
9699;DHT22;10089;47.876;8.346;2022-11-20T12:09:05;4.60;99.90
9699;DHT22;10089;47.876;8.346;2022-11-20T12:14:01;4.40;99.90
9699;DHT22;10089;47.876;8.346;2022-11-20T12:16:30;4.30;99.90
9699;DHT22;10089;47.876;8.346;2022-11-20T12:18:59;4.30;99.90
9699;DHT22;10089;47.876;8.346;2022-11-20T12:21:36;4.40;99.90
9699;DHT22;10089;47.876;8.346;2022-11-20T12:34:37;4.60;99.90
9699;DHT22;10089;47.876;8.346;2022-11-20T12:39:50;4.60;47.80
9699;DHT22;10089;47.876;8.346;2022-11-20T12:48:08;4.20;1.00
9699;DHT22;10089;47.876;8.346;2022-11-20T12:53:34;4.00;1.00
9699;DHT22;10089;47.876;8.346;2022-11-20T13:03:36;4.30;1.00
9699;DHT22;10089;47.876;8.346;2022-11-20T13:06:17;4.40;1.00
9699;DHT22;10089;47.876;8.346;2022-11-20T13:08:52;5.10;1.00
9699;DHT22;10089;47.876;8.346;2022-11-20T13:11:21;4.40;1.00
9699;DHT22;10089;47.876;8.346;2022-11-20T13:16:27;4.30;1.00
9699;DHT22;10089;47.876;8.346;2022-11-20T13:18:56;4.50;1.00
9699;DHT22;10089;47.876;8.346;2022-11-20T13:21:22;4.30;1.00
9699;DHT22;10089;47.876;8.346;2022-11-20T13:23:48;4.40;1.00
9699;DHT22;10089;47.876;8.346;2022-11-20T13:26:15;4.50;1.00
9699;DHT22;10089;47.876;8.346;2022-11-20T13:28:41;3.40;1.00
9699;DHT22;10089;47.876;8.346;2022-11-20T13:31:23;4.50;1.00
9699;DHT22;10089;47.876;8.346;2022-11-20T13:33:51;4.20;1.00
9699;DHT22;10089;47.876;8.346;2022-11-20T13:36:21;4.20;1.00
9699;DHT22;10089;47.876;8.346;2022-11-20T13:38:47;4.00;1.00
9699;DHT22;10089;47.876;8.346;2022-11-20T13:44:04;4.00;1.00
9699;DHT22;10089;47.876;8.346;2022-11-20T13:46:38;4.10;1.00
9699;DHT22;10089;47.876;8.346;2022-11-20T13:49:08;4.20;1.00
9699;DHT22;10089;47.876;8.346;2022-11-20T13:51:42;4.20;1.00
9699;DHT22;10089;47.876;8.346;2022-11-20T14:01:34;3.90;1.00
9699;DHT22;10089;47.876;8.346;2022-11-20T14:04:05;3.80;1.00
9699;DHT22;10089;47.876;8.346;2022-11-20T14:06:32;3.90;1.00
9699;DHT22;10089;47.876;8.346;2022-11-20T14:08:59;3.90;1.00
9699;DHT22;10089;47.876;8.346;2022-11-20T14:11:26;3.90;1.00
9699;DHT22;10089;47.876;8.346;2022-11-20T14:14:02;4.00;1.00
9699;DHT22;10089;47.876;8.346;2022-11-20T14:16:29;4.10;1.00
9699;DHT22;10089;47.876;8.346;2022-11-20T14:18:56;4.10;1.00
9699;DHT22;10089;47.876;8.346;2022-11-20T14:21:22;4.10;1.00
9699;DHT22;10089;47.876;8.346;2022-11-20T14:23:48;4.10;1.00
9699;DHT22;10089;47.876;8.346;2022-11-20T14:26:14;4.10;1.00
9699;DHT22;10089;47.876;8.346;2022-11-20T14:28:42;4.10;1.00
9699;DHT22;10089;47.876;8.346;2022-11-20T14:31:09;4.10;1.00
9699;DHT22;10089;47.876;8.346;2022-11-20T14:33:42;4.00;1.00
9699;DHT22;10089;47.876;8.346;2022-11-20T14:36:15;3.90;1.00
9699;DHT22;10089;47.876;8.346;2022-11-20T14:38:41;3.90;16.20
9699;DHT22;10089;47.876;8.346;2022-11-20T14:41:08;3.90;6.60
9699;DHT22;10089;47.876;8.346;2022-11-20T14:43:34;3.90;99.90
9699;DHT22;10089;47.876;8.346;2022-11-20T14:46:07;3.80;99.30
9699;DHT22;10089;47.876;8.346;2022-11-20T14:48:40;3.80;99.90
9699;DHT22;10089;47.876;8.346;2022-11-20T14:51:09;3.80;99.90
9699;DHT22;10089;47.876;8.346;2022-11-20T14:53:35;3.80;99.90
9699;DHT22;10089;47.876;8.346;2022-11-20T14:56:01;3.90;95.00
9699;DHT22;10089;47.876;8.346;2022-11-20T14:58:31;3.70;99.90
9699;DHT22;10089;47.876;8.346;2022-11-20T15:01:04;3.70;99.90
9699;DHT22;10089;47.876;8.346;2022-11-20T15:03:31;3.60;99.90
9699;DHT22;10089;47.876;8.346;2022-11-20T15:05:57;3.60;99.90
9699;DHT22;10089;47.876;8.346;2022-11-20T15:08:22;2.50;99.90
9699;DHT22;10089;47.876;8.346;2022-11-20T15:10:49;3.40;37.80
9699;DHT22;10089;47.876;8.346;2022-11-20T15:13:36;3.30;29.20
9699;DHT22;10089;47.876;8.346;2022-11-20T15:16:01;3.60;56.10
9699;DHT22;10089;47.876;8.346;2022-11-20T15:18:39;3.20;1.00
9699;DHT22;10089;47.876;8.346;2022-11-20T15:21:11;3.10;3.20
9699;DHT22;10089;47.876;8.346;2022-11-20T15:23:37;3.10;1.00
9699;DHT22;10089;47.876;8.346;2022-11-20T15:26:04;3.10;18.30
9699;DHT22;10089;47.876;8.346;2022-11-20T15:30:58;3.20;3.50
9699;DHT22;10089;47.876;8.346;2022-11-20T15:33:24;3.00;10.50
9699;DHT22;10089;47.876;8.346;2022-11-20T15:35:50;3.00;3.40
9699;DHT22;10089;47.876;8.346;2022-11-20T15:38:15;3.00;11.40
9699;DHT22;10089;47.876;8.346;2022-11-20T15:40:41;3.00;37.50
9699;DHT22;10089;47.876;8.346;2022-11-20T15:43:06;2.90;1.00
9699;DHT22;10089;47.876;8.346;2022-11-20T15:45:46;3.10;29.40
9699;DHT22;10089;47.876;8.346;2022-11-20T15:50:52;2.90;1.00
9699;DHT22;10089;47.876;8.346;2022-11-20T15:53:19;2.90;56.10
9699;DHT22;10089;47.876;8.346;2022-11-20T15:55:44;2.90;20.90
9699;DHT22;10089;47.876;8.346;2022-11-20T15:58:10;2.70;13.70
9699;DHT22;10089;47.876;8.346;2022-11-20T16:00:35;2.80;28.00
9699;DHT22;10089;47.876;8.346;2022-11-20T16:03:01;2.80;41.50
9699;DHT22;10089;47.876;8.346;2022-11-20T16:05:30;3.00;73.80
9699;DHT22;10089;47.876;8.346;2022-11-20T16:07:55;2.70;34.70
9699;DHT22;10089;47.876;8.346;2022-11-20T16:10:21;2.70;66.30
9699;DHT22;10089;47.876;8.346;2022-11-20T16:12:47;2.70;42.00
9699;DHT22;10089;47.876;8.346;2022-11-20T16:15:31;2.70;1.00
9699;DHT22;10089;47.876;8.346;2022-11-20T16:18:13;2.60;51.50
9699;DHT22;10089;47.876;8.346;2022-11-20T16:20:39;2.80;29.00
9699;DHT22;10089;47.876;8.346;2022-11-20T16:23:05;3.20;3.00
9699;DHT22;10089;47.876;8.346;2022-11-20T16:25:30;2.70;1.00
9699;DHT22;10089;47.876;8.346;2022-11-20T16:27:56;2.70;1.00
9699;DHT22;10089;47.876;8.346;2022-11-20T16:30:21;2.70;1.00
9699;DHT22;10089;47.876;8.346;2022-11-20T16:32:47;2.70;20.20
9699;DHT22;10089;47.876;8.346;2022-11-20T16:35:13;2.70;47.30
9699;DHT22;10089;47.876;8.346;2022-11-20T16:37:38;2.70;54.70
9699;DHT22;10089;47.876;8.346;2022-11-20T16:40:05;3.00;86.10
9699;DHT22;10089;47.876;8.346;2022-11-20T16:42:34;2.60;61.30
9699;DHT22;10089;47.876;8.346;2022-11-20T16:44:59;2.70;99.90
9699;DHT22;10089;47.876;8.346;2022-11-20T16:47:25;2.70;68.00
9699;DHT22;10089;47.876;8.346;2022-11-20T16:49:50;2.70;99.90
9699;DHT22;10089;47.876;8.346;2022-11-20T16:52:16;2.70;11.40
9699;DHT22;10089;47.876;8.346;2022-11-20T16:54:41;2.80;1.00
9699;DHT22;10089;47.876;8.346;2022-11-20T16:57:07;3.00;1.00
9699;DHT22;10089;47.876;8.346;2022-11-20T16:59:32;2.90;1.00
9699;DHT22;10089;47.876;8.346;2022-11-20T17:01:58;3.00;1.00
9699;DHT22;10089;47.876;8.346;2022-11-20T17:04:24;3.00;1.00
9699;DHT22;10089;47.876;8.346;2022-11-20T17:06:49;3.10;1.00
9699;DHT22;10089;47.876;8.346;2022-11-20T17:09:15;3.00;1.00
9699;DHT22;10089;47.876;8.346;2022-11-20T17:11:41;3.00;1.00
9699;DHT22;10089;47.876;8.346;2022-11-20T17:14:06;3.30;1.00
9699;DHT22;10089;47.876;8.346;2022-11-20T17:16:33;3.20;1.00
9699;DHT22;10089;47.876;8.346;2022-11-20T17:18:58;3.00;1.00
9699;DHT22;10089;47.876;8.346;2022-11-20T17:21:24;3.10;1.00
9699;DHT22;10089;47.876;8.346;2022-11-20T17:23:50;3.00;1.00
9699;DHT22;10089;47.876;8.346;2022-11-20T17:26:20;3.00;1.00
9699;DHT22;10089;47.876;8.346;2022-11-20T17:29:09;3.10;1.00
9699;DHT22;10089;47.876;8.346;2022-11-20T17:31:33;3.00;1.00
9699;DHT22;10089;47.876;8.346;2022-11-20T17:33:59;3.10;1.00
9699;DHT22;10089;47.876;8.346;2022-11-20T17:36:26;3.20;1.00